• Join FlightAware (Why Join?)
  • Login
  • US Flag 
12:31AM EDT


 

Airport Tracker/Info


-or-


 

Live Flight TrackerFlight Track Log ✈ UAL4295 ✈ 18-Apr-2013 ✈ KEWR - KMCI

Flight Track Log - Related Links

Times and Time Zones

All times are in EDT time to prevent confusion due to time zone crossing. See the UAL4295 flight status page for this flight to view local times or setup timezone preferences in your user account.

Time Position Orientation Groundspeed Altitude Reporting Facility
EDT Latitude Longitude Course Direction KTS MPH feet Rate Location/Type
09:05PM 40.6436 -74.1844 303° West 164 189 1,600  Level New York Center
09:06PM 40.6333 -74.2439 257° West 250 288 3,100 2,160 Climbing New York Center
09:08PM 40.6575 -74.3492 287° West 250 288 6,100 2,580 Climbing New York Center
09:08PM 40.6678 -74.4208 281° West 262 302 8,400 2,340 Climbing New York Center
09:10PM 40.7000 -74.5333 291° West 294 338 11,100 2,100 Climbing New York TRACON
09:11PM 40.8556 -74.9111 303° West  Level FlightAware Approximate
09:11PM 40.8000 -74.5667 346° North 334 384 13,000  Level New York TRACON
09:13PM 40.9469 -74.6747 331° Northwest 371 427 14,800 960 Climbing New York Center
09:13PM 40.9594 -74.7992 278° West 325 374 15,900 960 Climbing New York Center
09:14PM 40.9472 -74.9167 262° West 346 398 16,700 600 Climbing New York Center
09:15PM 40.9294 -75.0664 261° West 373 429 17,200 660 Climbing New York Center
09:16PM 40.9097 -75.1997 259° West 380 437 18,100 960 Climbing New York Center
09:18PM 40.8844 -75.3217 255° West 380 437 19,200 1,140 Climbing New York Center
09:19PM 40.8564 -75.4514 254° West 380 437 20,400 1,140 Climbing New York Center
09:19PM 40.8242 -75.5808 252° West 375 432 21,500 1,140 Climbing New York Center
09:20PM 40.7936 -75.7103 253° West 375 432 22,700 1,140 Climbing New York Center
09:22PM 40.7611 -75.8422 252° West 375 432 23,800 1,080 Climbing New York Center
09:22PM 40.7306 -75.9689 252° West 375 432 24,900 1,080 Climbing New York Center
09:23PM 40.6978 -76.0978 251° West 375 432 26,000 1,020 Climbing New York Center
09:24PM 40.6686 -76.2322 254° West 375 432 27,000 960 Climbing New York Center
09:26PM 40.6831 -76.3703 278° West 370 426 28,000 960 Climbing New York Center
09:26PM 40.7058 -76.5064 282° West 375 432 29,000 960 Climbing New York Center
09:27PM 40.7239 -76.6447 280° West 381 438 29,900 900 Climbing New York Center
09:29PM 40.7461 -76.7836 282° West 381 438 30,900 960 Climbing New York Center
09:29PM 40.7642 -76.9194 280° West 381 438 31,900 960 Climbing New York Center
09:30PM 40.7861 -77.0558 282° West 381 438 32,900 900 Climbing New York Center
09:31PM 40.8039 -77.1919 280° West 381 438 33,800 900 Climbing New York Center
09:32PM 40.8236 -77.3281 281° West 376 433 34,800 900 Climbing New York Center
09:33PM 40.8447 -77.4700 281° West 371 427 35,600 420 Climbing New York Center
09:35PM 40.8725 -77.6806 280° West 370 426 36,000 120 Climbing Cleveland Center
09:36PM 40.8928 -77.8225 281° West 381 438 36,000  Level Cleveland Center
09:37PM 40.9108 -77.9703 279° West 392 451 36,000  Level Cleveland Center
09:38PM 40.9308 -78.1178 280° West 413 475 36,000  Level Cleveland Center
09:39PM 40.9550 -78.2872 281° West 421 484 36,000  Level Cleveland Center
09:40PM 40.9728 -78.4436 279° West 427 491 36,000  Level Cleveland Center
09:41PM 40.9903 -78.6025 278° West 432 497 36,000  Level Cleveland Center
09:42PM 41.0114 -78.7558 280° West 432 497 36,000  Level Cleveland Center
09:43PM 41.0283 -78.9097 278° West 432 497 36,000  Level Cleveland Center
09:44PM 41.0453 -79.0606 279° West 427 491 36,000  Level Cleveland Center
09:45PM 41.0617 -79.2117 278° West 422 486 36,000  Level Cleveland Center
09:46PM 41.0800 -79.3572 280° West 422 486 36,000  Level Cleveland Center
09:47PM 41.0961 -79.5086 278° West 417 480 36,000  Level Cleveland Center
09:48PM 41.1119 -79.6406 279° West 417 480 36,000  Level Cleveland Center
09:49PM 41.1297 -79.8058 278° West 412 474 36,000  Level Cleveland Center
09:50PM 41.1411 -79.9381 277° West 412 474 36,000  Level Cleveland Center
09:51PM 41.1583 -80.0839 279° West 407 468 36,000  Level Cleveland Center
09:52PM 41.1756 -80.2328 279° West 407 468 36,000  Level Cleveland Center
09:53PM 41.1886 -80.3817 277° West 407 468 36,000  Level Cleveland Center
09:54PM 41.2033 -80.5253 278° West 402 463 36,000  Level Cleveland Center
09:55PM 41.2178 -80.6686 278° West 402 463 36,000  Level Cleveland Center
09:56PM 41.2322 -80.8261 277° West 391 450 36,000  Level Cleveland Center
09:57PM 41.2464 -80.9669 278° West 391 450 36,000  Level Cleveland Center
09:58PM 41.2603 -81.1133 277° West 393 452 36,000  Level Cleveland Center
09:59PM 41.2742 -81.2572 277° West 393 452 36,000  Level Cleveland Center
10:00PM 41.2878 -81.4011 277° West 398 458 36,000  Level Cleveland Center
10:01PM 41.3036 -81.5311 279° West 398 458 36,000  Level Cleveland Center
10:02PM 41.3169 -81.6750 277° West 403 464 36,000  Level Cleveland Center
10:03PM 41.3281 -81.8164 276° West 397 457 36,000  Level Cleveland Center
10:04PM 41.3408 -81.9550 277° West 386 444 36,000  Level Cleveland Center
10:05PM 41.3539 -82.0933 277° West 386 444 36,000  Level Cleveland Center
10:06PM 41.3619 -82.2514 274° West 392 451 36,000  Level Cleveland Center
10:07PM 41.3706 -82.3844 275° West 376 433 36,000  Level Cleveland Center
10:08PM 41.3767 -82.5203 273° West 371 427 36,000  Level Cleveland Center
10:09PM 41.3867 -82.6617 275° West 371 427 36,000  Level Cleveland Center
10:10PM 41.3944 -82.8003 274° West 377 434 36,000  Level Cleveland Center
10:11PM 41.4019 -82.9417 274° West 382 440 36,000  Level Cleveland Center
10:12PM 41.4075 -83.0775 273° West 382 440 36,000 300 Level Cleveland Center
10:13PM 41.4128 -83.2108 273° West 376 433 36,600 480 Climbing Cleveland Center
10:14PM 41.4033 -83.3433 265° West 363 418 37,000 180 Climbing Cleveland Center
10:15PM 41.3917 -83.4756 263° West 363 418 37,000  Level Cleveland Center
10:16PM 41.3781 -83.6050 262° West 363 418 37,000  Level Cleveland Center
10:17PM 41.3639 -83.7372 262° West 363 418 37,000  Level Cleveland Center
10:18PM 41.3519 -83.8667 263° West 363 418 37,000  Level Cleveland Center
10:20PM 41.3333 -84.0708 263° West 361 415 37,000  Level Chicago Center
10:21PM 41.3203 -84.2047 263° West 363 418 37,000  Level Chicago Center
10:22PM 41.3056 -84.3381 262° West 365 420 37,000  Level Chicago Center
10:23PM 41.2917 -84.4706 262° West 363 418 37,000  Level Chicago Center
10:24PM 41.2753 -84.6306 262° West 363 418 37,000  Level Chicago Center
10:25PM 41.2606 -84.7628 262° West 362 417 37,000  Level Chicago Center
10:26PM 41.2467 -84.8939 262° West 359 413 37,000  Level Chicago Center
10:27PM 41.2325 -85.0231 262° West 354 407 37,000  Level Chicago Center
10:28PM 41.2183 -85.1519 262° West 352 405 37,000  Level Chicago Center
10:29PM 41.2022 -85.2786 260° West 347 399 37,000  Level Chicago Center
10:30PM 41.1883 -85.4058 262° West 347 399 37,000  Level Chicago Center
10:31PM 41.1733 -85.5331 261° West 347 399 37,000  Level Chicago Center
10:32PM 41.1589 -85.6606 261° West 348 400 37,000  Level Chicago Center
10:33PM 41.1444 -85.7897 262° West 352 405 37,000  Level Chicago Center
10:34PM 41.1261 -85.9442 261° West 354 407 37,000  Level Chicago Center
10:35PM 41.1111 -86.0739 261° West 354 407 37,000  Level Chicago Center
10:36PM 41.0956 -86.2011 261° West 350 403 37,000  Level Chicago Center
10:37PM 41.0803 -86.3281 261° West 350 403 37,000  Level Chicago Center
10:38PM 41.0647 -86.4553 261° West 351 404 37,000  Level Chicago Center
10:39PM 41.0483 -86.5844 260° West 354 407 37,000  Level Chicago Center
10:40PM 41.0322 -86.7111 260° West 350 403 37,000  Level Chicago Center
10:41PM 41.0153 -86.8506 261° West 358 412 37,000  Level Chicago Center
10:42PM 40.9989 -86.9806 261° West 359 413 37,000  Level Chicago Center
10:43PM 40.9817 -87.1119 260° West 363 418 37,000  Level Chicago Center
10:44PM 40.9642 -87.2422 260° West 362 417 37,000  Level Chicago Center
10:45PM 40.9436 -87.3975 260° West 359 413 37,000  Level Chicago Center
10:46PM 40.9281 -87.5217 261° West 346 398 37,000  Level Chicago Center
10:47PM 40.9117 -87.6431 260° West 337 388 37,000  Level Chicago Center
10:48PM 40.8953 -87.7642 260° West 337 388 37,000  Level Chicago Center
10:50PM 40.8794 -87.8878 260° West 341 392 37,000  Level Chicago Center
10:51PM 40.8617 -88.0122 259° West 344 396 37,000  Level Chicago Center
10:52PM 40.8450 -88.1378 260° West 347 399 37,000  Level Chicago Center
10:53PM 40.8275 -88.2622 260° West 346 398 37,000  Level Chicago Center
10:54PM 40.8106 -88.3894 260° West 351 404 37,000  Level Chicago Center
10:55PM 40.7889 -88.5394 259° West 348 400 37,000  Level Chicago Center
10:56PM 40.7719 -88.6658 260° West 349 402 37,000  Level Chicago Center
10:57PM 40.7525 -88.7914 258° West 351 404 37,000  Level Chicago Center
10:58PM 40.7350 -88.9217 260° West 351 404 37,000  Level Chicago Center
10:59PM 40.7153 -89.0458 258° West 345 397 37,000  Level Chicago Center
11:00PM 40.6967 -89.1725 259° West 350 403 37,000  Level Chicago Center
11:01PM 40.6781 -89.3003 259° West 355 409 37,000  Level Chicago Center
11:02PM 40.6581 -89.4264 258° West 354 407 37,000  Level Chicago Center
11:03PM 40.6367 -89.5739 259° West 362 417 37,000  Level Chicago Center
11:04PM 40.6158 -89.7028 258° West 363 418 37,000  Level Chicago Center
11:05PM 40.5969 -89.8364 259° West 369 425 37,000  Level Chicago Center
11:06PM 40.5761 -89.9692 258° West 371 427 37,000  Level Chicago Center
11:07PM 40.5553 -90.1017 258° West 372 428 37,000  Level Chicago Center
11:08PM 40.5350 -90.2356 259° West 379 436 37,000  Level Chicago Center
11:09PM 40.5142 -90.3656 258° West 377 434 37,000  Level Chicago Center
11:10PM 40.4928 -90.4981 258° West 374 430 37,000  Level Chicago Center
11:11PM 40.4661 -90.6578 258° West 378 435 37,000  Level Chicago Center
11:12PM 40.4447 -90.7911 258° West 373 429 37,000  Level Chicago Center
11:13PM 40.4172 -90.9192 254° West 365 420 37,000  Level Chicago Center
11:14PM 40.3853 -91.0417 251° West 355 409 37,000  Level Chicago Center
11:15PM 40.3544 -91.1622 251° West 351 404 37,000  Level Chicago Center
11:16PM 40.3236 -91.2844 252° West 353 406 37,000  Level Chicago Center
11:17PM 40.2875 -91.4239 251° West 357 411 37,000  Level Chicago Center
11:18PM 40.2553 -91.5489 251° West 362 417 37,000 -480 Level Chicago Center
11:19PM 40.2244 -91.6753 252° West 365 420 36,100 -960 Descending Chicago Center
11:20PM 40.1906 -91.8019 251° West 370 426 35,100 -1,020 Descending Chicago Center
11:21PM 40.1575 -91.9275 251° West 369 425 34,100 -1,020 Descending Chicago Center
11:22PM 40.1269 -92.0519 252° West 363 418 33,100 -1,020 Descending Chicago Center
11:23PM 40.0961 -92.1675 251° West 346 398 32,100 -1,080 Descending Chicago Center
11:24PM 40.0658 -92.2828 251° West 337 388 31,000 -1,320 Descending Chicago Center
11:25PM 40.0342 -92.4011 251° West 343 395 29,500 -1,560 Descending Chicago Center
11:26PM 39.9950 -92.5453 251° West 348 400 27,700 -1,500 Descending Kansas City Center
11:27PM 39.9633 -92.6683 251° West 354 407 26,300 -1,260 Descending Kansas City Center
11:29PM 39.9306 -92.7878 250° West 352 405 25,200 -1,080 Descending Kansas City Center
11:29PM 39.8981 -92.9072 251° West 351 404 24,200 -1,020 Descending Kansas City Center
11:31PM 39.8647 -93.0244 250° West 348 400 23,200 -1,200 Descending Kansas City Center
11:32PM 39.8333 -93.1433 251° West 348 400 21,800 -1,380 Descending Kansas City Center
11:33PM 39.8011 -93.2611 250° West 348 400 20,400 -1,560 Descending Kansas City Center
11:34PM 39.7664 -93.3900 251° West 316 364 18,600 -1,800 Descending Kansas City Center
11:35PM 39.7397 -93.4847 250° West 296 341 16,700 -1,560 Descending Kansas City Center
11:36PM 39.7122 -93.5822 250° West 290 334 15,500 -1,320 Descending Kansas City Center
11:37PM 39.6814 -93.6947 250° West 330 380 14,100 -1,500 Descending Kansas City Center
11:38PM 39.6453 -93.8233 250° West 340 391 12,500 -1,200 Descending Kansas City Center
11:39PM 39.6081 -93.9244 244° Southwest 327 376 11,700 -960 Descending Kansas City Center
11:40PM 39.5622 -94.0028 233° Southwest 284 327 10,600 -1,080 Descending Kansas City Center
11:41PM 39.5133 -94.0850 232° Southwest 259 298 9,500 -1,140 Descending Kansas City Center
11:42PM 39.4711 -94.1556 232° Southwest 260 299 8,400 -1,200 Descending Kansas City Center
11:43PM 39.4286 -94.2244 231° Southwest 257 296 7,200 -1,380 Descending Kansas City Center
11:44PM 39.3786 -94.3050 231° Southwest 257 296 5,700 -1,320 Descending Kansas City Center
11:45PM 39.3383 -94.3731 233° Southwest 250 288 4,500 -1,080 Descending Kansas City Center
11:46PM 39.3019 -94.4392 235° Southwest 239 275 3,500 -1,020 Descending Kansas City Center